Airfield :
LOGIN :

Register | Disclaimer

   EN    FR    IT 

 










Legend :    VFR   Marginal VFR   IFR   Intensive IFR   Very Intensive IFR
Visi :
Ceiling :
>= 8 km
>= 3000ft
5 to 8 km
1000 to 3000 ft
1500m to 5 km
500 to 1000 ft
800 to 1500m
200 to 500 ft
< 800m
< 200 ft
Symbols :   Thunderstorms  Fog  Heavy snow  Heavy precipitations  Wind > 20 kt
SIGMETs :     Misc.  Thunderstorms  Icing  Turbulence  Mountain Waves  Volcanic Ashes






- Airport Elevation : 2001 ft
- IATA code : MAD


LEMD - Madrid

CURRENT METAR :
  • 181330Z VRB03KT CAVOK 21/05 Q1016 NOSIG

EXPIRED METARs :
  • 181300Z 35006KT CAVOK 20/04 Q1016 NOSIG
  • 181230Z VRB04KT CAVOK 19/02 Q1016 NOSIG
  • 181200Z 05004KT 320V110 CAVOK 19/03 Q1017 NOSIG
  • 181130Z 03006KT 350V100 CAVOK 18/03 Q1017 NOSIG
  • 181100Z 04005KT 320V120 CAVOK 17/03 Q1017 NOSIG
  • 181030Z 05006KT 350V110 CAVOK 17/03 Q1017 NOSIG
  • 181000Z 05006KT 340V100 CAVOK 16/03 Q1017 NOSIG
  • 180930Z 06006KT 360V110 CAVOK 15/03 Q1017 NOSIG
  • 180900Z 06005KT 010V130 CAVOK 13/02 Q1017 NOSIG

TAF TAF LEMD
Valid from the 18 at 12:00 until the 19 at 18:00 UTC


181100Z 1812/1918 04010KT CAVOK TX23/1915Z TN04/1906Z
BECMG 1906/1908 VRB05KT
PROB30
TEMPO 1818/1822 04015G25KT



MET'MAP, your aeronautical weather chart ! - Copyright ORBIFLY December 2007 - Disclaimer

ORBIFLY MET'MAP TEAM :

Programming & Development : Alexandra Zaïnal
Original concept : Baudouin d'Aumeries
Technical & hardware support : Manuel Goepfert
Assistance : Marc-Olivier Méhu




SOURCES & CREDITS :

   NOAA